sensor_id;sensor_type;location;lat;lon;timestamp;P1;P2;P0
45312;PMS7003;68267;51.540;5.854;2023-05-21T00:00:06;8.05;10.58;9.82
45312;PMS7003;68267;51.540;5.854;2023-05-21T00:13:25;7.69;10.26;10.04
45312;PMS7003;68267;51.540;5.854;2023-05-21T00:26:45;7.21;9.82;9.71
45312;PMS7003;68267;51.540;5.854;2023-05-21T00:40:05;7.93;10.47;10.04
45312;PMS7003;68267;51.540;5.854;2023-05-21T00:53:24;7.81;10.36;10.15
45312;PMS7003;68267;51.540;5.854;2023-05-21T01:06:44;8.41;10.36;10.15
45312;PMS7003;68267;51.540;5.854;2023-05-21T01:20:03;8.17;10.69;10.26
45312;PMS7003;68267;51.540;5.854;2023-05-21T01:33:23;10.45;12.76;12.44
45312;PMS7003;68267;51.540;5.854;2023-05-21T01:46:43;10.69;12.98;12.54
45312;PMS7003;68267;51.540;5.854;2023-05-21T02:00:02;8.65;11.13;10.69
45312;PMS7003;68267;51.540;5.854;2023-05-21T02:13:22;8.41;10.91;10.8
45312;PMS7003;68267;51.540;5.854;2023-05-21T02:26:42;11.29;11.67;11.24
45312;PMS7003;68267;51.540;5.854;2023-05-21T02:40:01;9.01;11.45;11.24
45312;PMS7003;68267;51.540;5.854;2023-05-21T02:53:21;8.77;11.24;10.91
45312;PMS7003;68267;51.540;5.854;2023-05-21T03:06:41;10.69;11.35;11.24
45312;PMS7003;68267;51.540;5.854;2023-05-21T03:20:00;9.37;11.78;11.24
45312;PMS7003;68267;51.540;5.854;2023-05-21T03:33:20;8.89;11.35;10.58
45312;PMS7003;68267;51.540;5.854;2023-05-21T03:46:39;8.29;10.8;10.47
45312;PMS7003;68267;51.540;5.854;2023-05-21T03:59:59;7.93;10.47;10.15
45312;PMS7003;68267;51.540;5.854;2023-05-21T04:13:19;9.97;10.47;10.04
45312;PMS7003;68267;51.540;5.854;2023-05-21T04:26:39;8.53;11.02;10.69
45312;PMS7003;68267;51.540;5.854;2023-05-21T04:39:59;8.53;11.02;10.8
45312;PMS7003;68267;51.540;5.854;2023-05-21T04:53:18;8.77;11.24;10.69
45312;PMS7003;68267;51.540;5.854;2023-05-21T05:06:38;8.29;10.8;10.26
45312;PMS7003;68267;51.540;5.854;2023-05-21T05:19:58;8.77;11.24;11.02
45312;PMS7003;68267;51.540;5.854;2023-05-21T05:33:18;9.85;12.22;11.89
45312;PMS7003;68267;51.540;5.854;2023-05-21T05:46:38;8.77;11.24;11.02
45312;PMS7003;68267;51.540;5.854;2023-05-21T05:59:57;10.21;11.56;11.35
45312;PMS7003;68267;51.540;5.854;2023-05-21T06:13:17;9.25;11.67;11.13
45312;PMS7003;68267;51.540;5.854;2023-05-21T06:26:37;9.13;11.56;11.02
45312;PMS7003;68267;51.540;5.854;2023-05-21T06:39:56;9.97;10.8;10.47
45312;PMS7003;68267;51.540;5.854;2023-05-21T06:53:16;8.29;10.8;10.36
45312;PMS7003;68267;51.540;5.854;2023-05-21T07:06:36;8.65;11.13;10.69
45312;PMS7003;68267;51.540;5.854;2023-05-21T07:19:55;9.49;11.89;11.13
45312;PMS7003;68267;51.540;5.854;2023-05-21T07:33:15;9.13;11.56;11.13
45312;PMS7003;68267;51.540;5.854;2023-05-21T07:46:35;8.89;11.35;11.13
45312;PMS7003;68267;51.540;5.854;2023-05-21T07:59:55;8.77;11.24;11.02
45312;PMS7003;68267;51.540;5.854;2023-05-21T08:13:14;10.57;12.87;12.33
45312;PMS7003;68267;51.540;5.854;2023-05-21T08:26:34;11.77;12.87;12.54
45312;PMS7003;68267;51.540;5.854;2023-05-21T08:39:54;10.81;12.65;12.54
45312;PMS7003;68267;51.540;5.854;2023-05-21T08:53:14;12.61;13.31;13.09
45312;PMS7003;68267;51.540;5.854;2023-05-21T09:06:33;11.05;13.31;12.76
45312;PMS7003;68267;51.540;5.854;2023-05-21T09:19:53;11.65;13.85;12.87
45312;PMS7003;68267;51.540;5.854;2023-05-21T09:33:13;11.89;14.07;13.63
45312;PMS7003;68267;51.540;5.854;2023-05-21T09:46:33;12.37;14.51;14.18
45312;PMS7003;68267;51.540;5.854;2023-05-21T09:59:53;15.01;14.4;14.07
45312;PMS7003;68267;51.540;5.854;2023-05-21T10:13:12;12.61;14.72;14.51
45312;PMS7003;68267;51.540;5.854;2023-05-21T10:26:32;13.69;15.71;14.83
45312;PMS7003;68267;51.540;5.854;2023-05-21T10:39:52;14.17;15.81;15.49
45312;PMS7003;68267;51.540;5.854;2023-05-21T10:53:12;15.01;16.9;16.25
45312;PMS7003;68267;51.540;5.854;2023-05-21T11:06:32;14.65;16.58;16.14
45312;PMS7003;68267;51.540;5.854;2023-05-21T11:19:51;17.41;17.67;17.01
45312;PMS7003;68267;51.540;5.854;2023-05-21T11:33:11;18.13;17.78;16.9
45312;PMS7003;68267;51.540;5.854;2023-05-21T11:46:31;15.01;16.14;15.81
45312;PMS7003;68267;51.540;5.854;2023-05-21T11:59:51;13.93;15.92;15.49
45312;PMS7003;68267;51.540;5.854;2023-05-21T12:13:10;45.14;23.77;17.34
45312;PMS7003;68267;51.540;5.854;2023-05-21T12:26:30;16.21;17.99;16.58
45312;PMS7003;68267;51.540;5.854;2023-05-21T12:39:50;15.61;16.9;16.14
45312;PMS7003;68267;51.540;5.854;2023-05-21T12:53:10;12.85;14.94;14.51
45312;PMS7003;68267;51.540;5.854;2023-05-21T13:06:29;14.17;16.14;15.05
45312;PMS7003;68267;51.540;5.854;2023-05-21T13:19:49;15.37;17.23;16.58
45312;PMS7003;68267;51.540;5.854;2023-05-21T13:33:09;17.53;18.98;17.34
45312;PMS7003;68267;51.540;5.854;2023-05-21T13:46:29;14.53;16.47;15.71
45312;PMS7003;68267;51.540;5.854;2023-05-21T13:59:49;14.41;16.36;15.6
45312;PMS7003;68267;51.540;5.854;2023-05-21T14:13:08;13.09;15.16;14.83
45312;PMS7003;68267;51.540;5.854;2023-05-21T14:26:28;15.13;15.6;15.05
45312;PMS7003;68267;51.540;5.854;2023-05-21T14:39:47;14.89;16.8;15.81
45312;PMS7003;68267;51.540;5.854;2023-05-21T14:53:07;26.05;15.92;15.71
45312;PMS7003;68267;51.540;5.854;2023-05-21T15:06:27;14.29;16.25;15.49
45312;PMS7003;68267;51.540;5.854;2023-05-21T15:19:46;14.17;15.16;14.4
45312;PMS7003;68267;51.540;5.854;2023-05-21T15:33:06;13.09;14.72;14.4
45312;PMS7003;68267;51.540;5.854;2023-05-21T15:46:26;13.33;15.38;14.62
45312;PMS7003;68267;51.540;5.854;2023-05-21T15:59:45;15.37;15.92;15.16
45312;PMS7003;68267;51.540;5.854;2023-05-21T16:13:05;12.01;14.18;13.96
45312;PMS7003;68267;51.540;5.854;2023-05-21T16:26:24;12.49;14.62;14.4
45312;PMS7003;68267;51.540;5.854;2023-05-21T16:39:44;13.09;15.16;14.83
45312;PMS7003;68267;51.540;5.854;2023-05-21T16:53:04;15.61;16.36;15.71
45312;PMS7003;68267;51.540;5.854;2023-05-21T17:06:23;12.73;14.83;14.29
45312;PMS7003;68267;51.540;5.854;2023-05-21T17:19:43;12.73;14.83;14.62
45312;PMS7003;68267;51.540;5.854;2023-05-21T17:33:02;12.85;14.94;14.51
45312;PMS7003;68267;51.540;5.854;2023-05-21T17:46:22;14.17;16.14;15.05
45312;PMS7003;68267;51.540;5.854;2023-05-21T17:59:42;13.33;15.38;14.72
45312;PMS7003;68267;51.540;5.854;2023-05-21T18:13:01;15.49;17.34;16.36
45312;PMS7003;68267;51.540;5.854;2023-05-21T18:26:21;15.37;17.23;16.25
45312;PMS7003;68267;51.540;5.854;2023-05-21T18:39:41;15.49;17.34;16.14
45312;PMS7003;68267;51.540;5.854;2023-05-21T18:53:00;15.37;17.23;16.47
45312;PMS7003;68267;51.540;5.854;2023-05-21T19:06:20;14.77;16.36;16.14
45312;PMS7003;68267;51.540;5.854;2023-05-21T19:19:40;15.13;15.81;15.71
45312;PMS7003;68267;51.540;5.854;2023-05-21T19:33:00;15.61;16.36;16.36
45312;PMS7003;68267;51.540;5.854;2023-05-21T19:46:19;16.33;17.67;17.23
45312;PMS7003;68267;51.540;5.854;2023-05-21T19:59:39;18.37;19.96;19.74
45312;PMS7003;68267;51.540;5.854;2023-05-21T20:12:59;17.05;18.76;18.21
45312;PMS7003;68267;51.540;5.854;2023-05-21T20:26:19;19.57;21.05;20.5
45312;PMS7003;68267;51.540;5.854;2023-05-21T20:39:38;19.45;20.94;20.07
45312;PMS7003;68267;51.540;5.854;2023-05-21T20:52:58;21.85;22.57;22.14
45312;PMS7003;68267;51.540;5.854;2023-05-21T21:06:18;21.61;21.92;21.16
45312;PMS7003;68267;51.540;5.854;2023-05-21T21:19:38;23.29;24.43;23.66
45312;PMS7003;68267;51.540;5.854;2023-05-21T21:32:58;19.33;20.83;20.07
45312;PMS7003;68267;51.540;5.854;2023-05-21T21:46:18;17.65;19.3;18.32
45312;PMS7003;68267;51.540;5.854;2023-05-21T21:59:37;17.17;18.87;17.99
45312;PMS7003;68267;51.540;5.854;2023-05-21T22:12:57;17.29;18.54;17.89
45312;PMS7003;68267;51.540;5.854;2023-05-21T22:26:17;18.49;20.07;19.08
